createdAt,value
2018-06-20T00:00:43.670Z,7.30
2018-06-20T00:03:11.098Z,7.30
2018-06-20T00:05:38.532Z,7.30
2018-06-20T00:08:06.037Z,7.30
2018-06-20T00:10:33.505Z,7.20
2018-06-20T00:13:00.938Z,7.30
2018-06-20T00:15:28.419Z,7.30
2018-06-20T00:20:23.264Z,7.30
2018-06-20T00:22:50.729Z,7.30
2018-06-20T00:25:18.132Z,7.30
2018-06-20T00:27:45.543Z,7.30
2018-06-20T00:30:13.022Z,7.30
2018-06-20T00:32:40.453Z,7.30
2018-06-20T00:37:35.329Z,7.70
2018-06-20T00:40:02.791Z,8.00
2018-06-20T00:42:30.177Z,8.10
2018-06-20T00:44:57.588Z,8.30
2018-06-20T00:47:25.046Z,8.40
2018-06-20T00:49:52.556Z,8.30
2018-06-20T00:52:20.002Z,8.30
2018-06-20T00:54:47.424Z,8.20
2018-06-20T00:57:14.824Z,8.20
2018-06-20T00:59:42.264Z,8.30
2018-06-20T01:02:09.694Z,8.30
2018-06-20T01:04:37.094Z,8.40
2018-06-20T01:07:04.555Z,8.30
2018-06-20T01:09:31.968Z,8.60
2018-06-20T01:14:26.820Z,8.90
2018-06-20T01:16:54.301Z,9.00
2018-06-20T01:19:21.737Z,9.10
2018-06-20T01:21:49.194Z,9.10
2018-06-20T01:24:16.611Z,9.20
2018-06-20T01:26:44.001Z,9.20
2018-06-20T01:29:11.426Z,9.20
2018-06-20T01:31:38.826Z,9.20
2018-06-20T01:34:06.277Z,9.30
2018-06-20T01:36:33.759Z,9.30
2018-06-20T01:39:01.147Z,9.30
2018-06-20T01:41:28.546Z,9.30
2018-06-20T01:43:55.950Z,9.40
2018-06-20T01:46:23.360Z,9.40
2018-06-20T01:48:50.774Z,9.40
2018-06-20T01:51:18.252Z,9.50
2018-06-20T01:53:45.647Z,9.50
2018-06-20T01:56:13.045Z,9.60
2018-06-20T01:58:40.482Z,9.50
2018-06-20T02:03:35.318Z,9.40
2018-06-20T02:06:02.814Z,9.40
2018-06-20T02:08:30.232Z,9.50
2018-06-20T02:13:25.084Z,9.60
2018-06-20T02:15:52.513Z,9.50
2018-06-20T02:20:47.253Z,9.60
2018-06-20T02:23:14.692Z,9.50
2018-06-20T02:25:42.110Z,9.50
2018-06-20T02:28:09.560Z,9.40
2018-06-20T02:30:36.961Z,9.40
2018-06-20T02:33:04.590Z,9.40
2018-06-20T02:35:32.025Z,9.40
2018-06-20T02:37:59.429Z,9.50
2018-06-20T02:40:26.810Z,9.60
2018-06-20T02:42:54.384Z,9.70
2018-06-20T02:45:21.820Z,9.70
2018-06-20T02:47:49.322Z,9.70
2018-06-20T02:50:16.800Z,9.70
2018-06-20T02:52:44.306Z,9.80
2018-06-20T02:55:11.610Z,9.90
2018-06-20T02:57:39.034Z,10.10
2018-06-20T03:00:06.461Z,10.10
2018-06-20T03:02:33.852Z,10.30
2018-06-20T03:05:01.292Z,10.40
2018-06-20T03:07:28.719Z,10.50
2018-06-20T03:09:56.173Z,10.70
2018-06-20T03:12:23.618Z,11.00
2018-06-20T03:17:18.442Z,12.40
2018-06-20T03:19:45.875Z,13.20
2018-06-20T03:22:13.289Z,13.90
2018-06-20T03:24:40.726Z,13.90
2018-06-20T03:29:35.524Z,13.50
2018-06-20T03:32:02.938Z,13.20
2018-06-20T03:34:30.389Z,12.80
2018-06-20T03:36:57.785Z,12.50
2018-06-20T03:39:25.468Z,12.40
2018-06-20T03:41:52.859Z,12.30
2018-06-20T03:44:20.287Z,12.10
2018-06-20T03:46:47.697Z,12.00
2018-06-20T03:49:15.110Z,12.00
2018-06-20T03:51:42.650Z,12.10
2018-06-20T03:54:10.142Z,12.20
2018-06-20T03:56:37.566Z,12.40
2018-06-20T03:59:05.090Z,13.00
2018-06-20T04:03:59.889Z,14.00
2018-06-20T04:06:27.293Z,14.70
2018-06-20T04:08:54.781Z,15.60
2018-06-20T04:11:22.217Z,16.60
2018-06-20T04:13:49.600Z,17.20
2018-06-20T04:16:17.065Z,17.50
2018-06-20T04:18:44.701Z,17.40
2018-06-20T04:21:13.293Z,17.70
2018-06-20T04:23:40.729Z,17.70
2018-06-20T04:26:09.137Z,17.70
2018-06-20T04:28:36.880Z,17.30
2018-06-20T04:31:04.874Z,17.00
2018-06-20T04:33:33.146Z,17.00
2018-06-20T04:36:00.567Z,17.70
2018-06-20T04:40:55.541Z,17.80
2018-06-20T04:43:22.985Z,18.20
2018-06-20T04:45:50.413Z,18.30
2018-06-20T04:48:17.829Z,18.40
2018-06-20T04:50:45.568Z,18.50
2018-06-20T04:53:13.001Z,18.00
2018-06-20T04:55:40.432Z,17.30
2018-06-20T04:58:07.836Z,16.80
2018-06-20T05:00:35.263Z,16.60
2018-06-20T05:03:02.661Z,16.00
2018-06-20T05:05:30.062Z,16.10
2018-06-20T05:07:57.458Z,16.20
2018-06-20T05:10:24.954Z,16.20
2018-06-20T05:15:19.788Z,16.90
2018-06-20T05:17:47.209Z,17.40
2018-06-20T05:20:14.737Z,17.10
2018-06-20T05:22:42.460Z,16.70
2018-06-20T05:25:09.857Z,16.20
2018-06-20T05:27:37.260Z,15.60
2018-06-20T05:30:05.159Z,15.30
2018-06-20T05:32:32.660Z,14.90
2018-06-20T05:35:00.079Z,14.80
2018-06-20T05:37:27.725Z,14.90
2018-06-20T05:39:55.136Z,14.80
2018-06-20T05:42:22.569Z,14.60
2018-06-20T05:49:44.677Z,14.40
2018-06-20T05:52:12.095Z,14.50
2018-06-20T05:54:39.546Z,14.50
2018-06-20T05:57:07.055Z,14.60
2018-06-20T05:59:34.473Z,14.70
2018-06-20T06:02:01.911Z,14.90
2018-06-20T06:04:29.313Z,15.20
2018-06-20T06:06:56.766Z,15.30
2018-06-20T06:11:51.569Z,15.80
2018-06-20T06:14:18.952Z,16.00
2018-06-20T06:16:46.471Z,16.10
2018-06-20T06:19:13.870Z,16.50
2018-06-20T06:21:41.313Z,16.90
2018-06-20T06:24:08.893Z,16.60
2018-06-20T06:26:36.313Z,16.30
2018-06-20T06:29:03.752Z,16.20
2018-06-20T06:31:31.261Z,16.40
2018-06-20T06:33:58.677Z,16.40
2018-06-20T06:36:26.189Z,16.40
2018-06-20T06:38:53.708Z,16.00
2018-06-20T06:41:21.101Z,16.10
2018-06-20T06:43:48.512Z,16.20
2018-06-20T06:46:15.981Z,16.90
2018-06-20T06:48:43.462Z,16.80
2018-06-20T06:51:10.886Z,16.40
2018-06-20T06:53:38.309Z,16.20
2018-06-20T06:56:05.789Z,16.10
2018-06-20T06:58:33.186Z,16.00
2018-06-20T07:01:00.605Z,16.30
2018-06-20T07:03:28.036Z,16.50
2018-06-20T07:05:55.435Z,16.80
2018-06-20T07:08:22.873Z,16.90
2018-06-20T07:10:50.377Z,17.20
2018-06-20T07:13:17.764Z,17.50
2018-06-20T07:15:45.269Z,17.80
2018-06-20T07:18:12.722Z,17.80
2018-06-20T07:20:40.115Z,17.60
2018-06-20T07:23:07.530Z,17.10
2018-06-20T07:25:35.060Z,17.00
2018-06-20T07:28:02.463Z,17.00
2018-06-20T07:30:30.110Z,16.90
2018-06-20T07:32:57.544Z,16.70
2018-06-20T07:35:25.025Z,16.60
2018-06-20T07:37:53.209Z,16.50
2018-06-20T07:40:20.630Z,16.50
2018-06-20T07:42:48.016Z,16.50
2018-06-20T07:45:15.468Z,16.60
2018-06-20T07:47:42.898Z,16.90
2018-06-20T07:50:10.413Z,16.90
2018-06-20T07:52:37.848Z,16.60
2018-06-20T07:55:05.350Z,16.50
2018-06-20T07:57:32.776Z,16.50
2018-06-20T08:00:05.993Z,16.60
2018-06-20T08:02:50.658Z,16.70
2018-06-20T08:05:30.397Z,16.80
2018-06-20T08:08:03.510Z,16.50
2018-06-20T08:10:36.820Z,16.10
2018-06-20T08:13:09.997Z,16.00
2018-06-20T08:15:43.029Z,16.10
2018-06-20T08:18:16.142Z,16.20
2018-06-20T08:20:43.588Z,16.20
2018-06-20T08:23:11.041Z,16.10
2018-06-20T08:25:38.443Z,16.00
2018-06-20T08:28:05.859Z,15.80
2018-06-20T08:30:33.253Z,15.70
2018-06-20T08:33:00.665Z,15.80
2018-06-20T08:35:31.422Z,15.80
2018-06-20T08:37:58.909Z,15.90
2018-06-20T08:40:26.321Z,16.10
2018-06-20T08:42:53.759Z,16.30
2018-06-20T08:45:21.192Z,16.70
2018-06-20T08:47:48.593Z,16.90
2018-06-20T08:50:15.982Z,16.70
2018-06-20T08:52:43.425Z,16.50
2018-06-20T08:55:10.847Z,16.50
2018-06-20T08:57:38.248Z,16.60
2018-06-20T09:02:33.202Z,16.80
2018-06-20T09:05:06.424Z,16.80
2018-06-20T09:07:39.605Z,16.90
2018-06-20T09:10:12.802Z,16.50
2018-06-20T09:12:46.014Z,16.50
2018-06-20T09:15:19.329Z,16.20
2018-06-20T09:17:52.575Z,16.20
2018-06-20T09:20:20.083Z,16.20
2018-06-20T09:22:47.501Z,16.30
2018-06-20T09:25:15.154Z,16.20
2018-06-20T09:27:44.491Z,15.80
2018-06-20T09:30:11.969Z,15.40
2018-06-20T09:32:39.372Z,15.30
2018-06-20T09:35:06.807Z,15.30
2018-06-20T09:37:34.198Z,15.30
2018-06-20T09:40:01.606Z,15.20
2018-06-20T09:42:29.067Z,15.30
2018-06-20T09:44:56.477Z,15.40
2018-06-20T09:47:23.888Z,15.50
2018-06-20T09:49:51.485Z,15.90
2018-06-20T09:52:18.889Z,16.20
2018-06-20T09:54:47.577Z,16.20
2018-06-20T09:57:15.103Z,16.50
2018-06-20T09:59:48.236Z,16.50
2018-06-20T10:02:21.579Z,16.60
2018-06-20T10:04:54.696Z,16.90
2018-06-20T10:08:30.562Z,17.40
2018-06-20T10:11:03.740Z,17.80
2018-06-20T10:13:35.726Z,17.40
2018-06-20T10:16:03.170Z,16.00
2018-06-20T10:18:30.604Z,15.30
2018-06-20T10:20:58.136Z,15.20
2018-06-20T10:23:25.610Z,15.40
2018-06-20T10:25:53.002Z,15.20
2018-06-20T10:28:20.418Z,14.90
2018-06-20T10:30:47.833Z,14.90
2018-06-20T10:33:15.261Z,14.90
2018-06-20T10:35:42.694Z,14.80
2018-06-20T10:38:10.105Z,14.80
2018-06-20T10:40:37.636Z,14.90
2018-06-20T10:43:05.098Z,14.80
2018-06-20T10:45:38.253Z,15.00
2018-06-20T10:48:11.420Z,14.60
2018-06-20T10:50:38.825Z,14.60
2018-06-20T10:53:06.259Z,14.60
2018-06-20T10:55:37.238Z,14.70
2018-06-20T10:59:15.922Z,14.80
2018-06-20T11:01:49.000Z,14.90
2018-06-20T11:04:22.252Z,15.30
2018-06-20T11:06:55.452Z,15.30
2018-06-20T11:09:28.781Z,15.10
2018-06-20T11:14:29.224Z,14.80
2018-06-20T11:16:56.694Z,14.70
2018-06-20T11:21:51.570Z,14.80
2018-06-20T11:24:19.134Z,14.80
2018-06-20T11:26:46.675Z,15.10
2018-06-20T11:29:14.217Z,15.20
2018-06-20T11:31:41.810Z,15.60
2018-06-20T11:34:09.272Z,15.60
2018-06-20T11:36:36.663Z,15.80
2018-06-20T11:39:06.568Z,15.90
2018-06-20T11:41:34.110Z,16.10
2018-06-20T11:44:01.592Z,16.10
2018-06-20T11:46:34.625Z,16.00
2018-06-20T11:49:02.048Z,16.00
2018-06-20T11:51:29.467Z,15.90
2018-06-20T11:53:56.925Z,15.90
2018-06-20T11:56:24.330Z,16.00
2018-06-20T11:58:57.393Z,16.10
2018-06-20T12:01:30.503Z,16.40
2018-06-20T12:04:03.834Z,16.70
2018-06-20T12:06:36.959Z,16.70
2018-06-20T12:09:11.075Z,16.60
2018-06-20T12:11:44.309Z,16.20
2018-06-20T12:14:17.489Z,16.10
2018-06-20T12:16:47.371Z,16.00
2018-06-20T12:19:22.583Z,15.90
2018-06-20T12:27:02.014Z,16.60
2018-06-20T12:29:35.123Z,16.70
2018-06-20T12:32:08.292Z,16.70
2018-06-20T12:34:41.504Z,16.90
2018-06-20T12:37:14.625Z,17.00
2018-06-20T12:39:41.541Z,17.20
2018-06-20T12:42:14.603Z,17.40
2018-06-20T12:45:18.181Z,17.40
2018-06-20T12:47:50.106Z,17.60
2018-06-20T12:52:53.960Z,17.60
2018-06-20T12:55:21.840Z,17.50
2018-06-20T12:57:49.249Z,17.60
2018-06-20T13:00:16.670Z,17.80
2018-06-20T13:02:44.532Z,17.90
2018-06-20T13:05:11.961Z,18.10
2018-06-20T13:07:39.390Z,18.20
2018-06-20T13:10:07.017Z,18.10
2018-06-20T13:12:34.405Z,18.10
2018-06-20T13:15:01.810Z,18.30
2018-06-20T13:17:29.671Z,18.50
2018-06-20T13:22:24.478Z,18.50
2018-06-20T13:24:52.149Z,18.50
2018-06-20T13:27:25.392Z,18.50
2018-06-20T13:29:58.594Z,18.60
2018-06-20T13:32:31.806Z,18.60
2018-06-20T13:35:04.986Z,18.70
2018-06-20T13:37:38.195Z,18.90
2018-06-20T13:40:11.369Z,18.90
2018-06-20T13:42:44.585Z,18.90
2018-06-20T13:46:19.402Z,18.70
2018-06-20T13:48:46.873Z,18.70
2018-06-20T13:51:14.281Z,18.80
2018-06-20T13:53:41.735Z,18.80
2018-06-20T13:56:09.149Z,18.80
2018-06-20T13:58:36.548Z,18.80
2018-06-20T14:01:03.948Z,18.90
2018-06-20T14:03:31.360Z,19.10
2018-06-20T14:05:58.774Z,19.40
2018-06-20T14:08:26.178Z,19.70
2018-06-20T14:10:53.625Z,20.10
2018-06-20T14:13:21.044Z,20.40
2018-06-20T14:15:48.489Z,20.40
2018-06-20T14:18:15.885Z,20.60
2018-06-20T14:20:48.923Z,20.60
2018-06-20T14:23:16.362Z,20.60
2018-06-20T14:25:43.810Z,20.90
2018-06-20T14:28:11.246Z,21.10
2018-06-20T14:30:44.351Z,21.20
2018-06-20T14:33:17.477Z,21.10
2018-06-20T14:35:50.732Z,21.00
2018-06-20T14:38:23.879Z,20.90
2018-06-20T14:40:57.137Z,20.80
2018-06-20T14:43:30.336Z,20.50
2018-06-20T14:46:03.476Z,20.30
2018-06-20T14:48:30.905Z,20.30
2018-06-20T14:50:58.342Z,20.40
2018-06-20T14:53:25.764Z,20.80
2018-06-20T14:55:53.253Z,21.00
2018-06-20T14:58:20.682Z,21.20
2018-06-20T15:00:48.119Z,21.20
2018-06-20T15:03:15.556Z,21.10
2018-06-20T15:05:43.145Z,21.10
2018-06-20T15:08:10.550Z,21.20
2018-06-20T15:10:37.965Z,21.10
2018-06-20T15:13:05.385Z,21.10
2018-06-20T15:15:32.826Z,21.00
2018-06-20T15:18:00.213Z,21.20
2018-06-20T15:22:55.050Z,21.40
2018-06-20T15:25:28.050Z,21.60
2018-06-20T15:28:01.192Z,21.40
2018-06-20T15:30:34.362Z,21.30
2018-06-20T15:33:07.561Z,21.60
2018-06-20T15:35:40.671Z,21.50
2018-06-20T15:38:13.829Z,21.40
2018-06-20T15:40:41.276Z,21.20
2018-06-20T15:43:08.688Z,21.10
2018-06-20T15:45:36.106Z,21.30
2018-06-20T15:48:03.543Z,21.40
2018-06-20T15:50:30.964Z,21.30
2018-06-20T15:52:58.406Z,21.20
2018-06-20T15:55:25.824Z,21.30
2018-06-20T15:57:53.261Z,21.30
2018-06-20T16:00:20.708Z,21.40
2018-06-20T16:02:48.136Z,21.40
2018-06-20T16:05:15.537Z,21.20
2018-06-20T16:07:42.977Z,21.10
2018-06-20T16:10:14.944Z,20.90
2018-06-20T16:12:42.370Z,20.60
2018-06-20T16:15:09.783Z,20.60
2018-06-20T16:17:37.188Z,20.50
2018-06-20T16:20:10.206Z,20.50
2018-06-20T16:22:43.406Z,20.60
2018-06-20T16:25:16.590Z,20.80
2018-06-20T16:27:49.819Z,20.90
2018-06-20T16:32:53.816Z,21.30
2018-06-20T16:35:21.237Z,21.40
2018-06-20T16:40:19.616Z,20.50
2018-06-20T16:42:47.482Z,20.10
2018-06-20T16:45:14.955Z,20.10
2018-06-20T16:47:43.172Z,20.10
2018-06-20T16:50:10.846Z,20.30
2018-06-20T16:52:38.690Z,20.30
2018-06-20T16:55:06.442Z,20.20
2018-06-20T16:57:42.332Z,20.00
2018-06-20T17:00:09.921Z,19.80
2018-06-20T17:02:38.741Z,19.60
2018-06-20T17:07:34.921Z,19.40
2018-06-20T17:10:07.165Z,19.20
2018-06-20T17:13:58.548Z,19.10
2018-06-20T17:16:34.665Z,18.90
2018-06-20T17:19:07.944Z,18.40
2018-06-20T17:21:41.230Z,18.30
2018-06-20T17:24:15.115Z,18.10
2018-06-20T17:26:42.655Z,18.00
2018-06-20T17:29:10.746Z,18.00
2018-06-20T17:31:38.235Z,18.00
2018-06-20T17:34:05.756Z,17.90
2018-06-20T17:36:33.199Z,17.80
2018-06-20T17:39:00.748Z,17.70
2018-06-20T17:41:28.234Z,17.60
2018-06-20T17:43:55.803Z,17.50
2018-06-20T17:46:23.495Z,17.50
2018-06-20T17:48:51.142Z,17.40
2018-06-20T17:53:46.286Z,17.30
2018-06-20T17:56:13.780Z,17.30
2018-06-20T17:58:41.344Z,17.20
2018-06-20T18:01:09.993Z,17.20
2018-06-20T18:03:37.790Z,17.10
2018-06-20T18:06:11.217Z,17.00
2018-06-20T18:08:44.569Z,17.10
2018-06-20T18:11:15.976Z,17.00
2018-06-20T18:13:49.022Z,17.00
2018-06-20T18:16:22.305Z,17.00
2018-06-20T18:18:49.773Z,17.00
2018-06-20T18:21:17.689Z,16.90
2018-06-20T18:23:45.196Z,16.90
2018-06-20T18:26:12.688Z,16.80
2018-06-20T18:28:40.209Z,16.80
2018-06-20T18:31:07.942Z,16.70
2018-06-20T18:33:35.413Z,16.60
2018-06-20T18:36:02.869Z,16.60
2018-06-20T18:38:30.350Z,16.50
2018-06-20T18:40:57.853Z,16.50
2018-06-20T18:43:25.551Z,16.50
2018-06-20T18:45:53.001Z,16.50
2018-06-20T18:48:26.536Z,16.40
2018-06-20T18:53:21.935Z,16.30
2018-06-20T18:55:49.468Z,16.30
2018-06-20T18:58:22.464Z,16.30
2018-06-20T19:00:55.727Z,16.20
2018-06-20T19:03:29.126Z,16.20
2018-06-20T19:08:35.424Z,16.10
2018-06-20T19:11:03.041Z,16.00
2018-06-20T19:13:30.607Z,16.00
2018-06-20T19:15:58.104Z,16.00
2018-06-20T19:18:25.980Z,15.90
2018-06-20T19:20:53.497Z,15.90
2018-06-20T19:23:20.948Z,15.80
2018-06-20T19:25:48.558Z,15.80
2018-06-20T19:28:16.060Z,15.80
2018-06-20T19:30:43.860Z,15.80
2018-06-20T19:33:12.020Z,15.80
2018-06-20T19:35:39.537Z,15.70
2018-06-20T19:38:07.147Z,15.60
2018-06-20T19:40:35.824Z,15.70
2018-06-20T19:43:04.941Z,15.60
2018-06-20T19:45:33.047Z,15.60
2018-06-20T19:48:01.077Z,15.50
2018-06-20T19:50:29.312Z,15.50
2018-06-20T19:52:57.102Z,15.50
2018-06-20T19:57:52.551Z,15.40
2018-06-20T20:00:20.282Z,15.50
2018-06-20T20:02:47.843Z,15.40
2018-06-20T20:05:15.612Z,15.50
2018-06-20T20:10:10.842Z,15.40
2018-06-20T20:12:38.438Z,15.40
2018-06-20T20:15:06.096Z,15.40
2018-06-20T20:17:33.771Z,15.30
2018-06-20T20:20:01.885Z,15.30
2018-06-20T20:22:29.477Z,15.30
2018-06-20T20:24:57.050Z,15.30
2018-06-20T20:27:24.709Z,15.30
2018-06-20T20:29:52.157Z,15.30
2018-06-20T20:32:20.172Z,15.30
2018-06-20T20:34:47.728Z,15.30
2018-06-20T20:37:15.298Z,15.30
2018-06-20T20:39:42.824Z,15.30
2018-06-20T20:42:10.394Z,15.20
2018-06-20T20:44:37.894Z,15.20
2018-06-20T20:47:05.577Z,15.30
2018-06-20T20:49:33.408Z,15.30
2018-06-20T20:52:01.010Z,15.20
2018-06-20T20:54:28.464Z,15.30
2018-06-20T20:56:55.890Z,15.20
2018-06-20T20:59:24.225Z,15.10
2018-06-20T21:01:51.882Z,15.10
2018-06-20T21:04:19.353Z,15.20
2018-06-20T21:06:47.004Z,15.20
2018-06-20T21:09:14.452Z,15.20
2018-06-20T21:11:41.942Z,15.10
2018-06-20T21:14:09.336Z,15.10
2018-06-20T21:16:36.741Z,15.10
2018-06-20T21:19:04.303Z,15.00
2018-06-20T21:21:31.806Z,15.00
2018-06-20T21:23:59.323Z,15.00
2018-06-20T21:26:26.791Z,15.00
2018-06-20T21:28:54.297Z,15.00
2018-06-20T21:31:22.104Z,15.00
2018-06-20T21:38:44.911Z,14.90
2018-06-20T21:41:12.380Z,14.90
2018-06-20T21:43:40.008Z,14.90
2018-06-20T21:46:07.437Z,15.00
2018-06-20T21:48:34.951Z,14.90
2018-06-20T21:51:02.344Z,14.90
2018-06-20T21:53:29.861Z,14.90
2018-06-20T21:55:57.268Z,14.90
2018-06-20T21:58:24.706Z,14.90
2018-06-20T22:00:52.113Z,14.90
2018-06-20T22:03:19.562Z,14.90
2018-06-20T22:05:47.036Z,14.80
2018-06-20T22:08:14.534Z,14.80
2018-06-20T22:10:41.981Z,14.90
2018-06-20T22:13:09.453Z,14.90
2018-06-20T22:18:04.860Z,14.90
2018-06-20T22:20:32.445Z,15.00
2018-06-20T22:22:59.943Z,15.00
2018-06-20T22:25:27.421Z,15.00
2018-06-20T22:27:55.016Z,15.10
2018-06-20T22:30:22.514Z,15.10
2018-06-20T22:32:50.064Z,15.10
2018-06-20T22:35:17.612Z,15.10
2018-06-20T22:37:45.148Z,15.10
2018-06-20T22:40:12.619Z,15.10
2018-06-20T22:42:40.166Z,15.10
2018-06-20T22:45:07.812Z,15.10
2018-06-20T22:47:35.374Z,15.00
2018-06-20T22:50:03.106Z,15.00
2018-06-20T22:52:33.308Z,15.00
2018-06-20T22:55:00.919Z,15.00
2018-06-20T22:57:28.550Z,15.10
2018-06-20T22:59:56.018Z,15.00
2018-06-20T23:02:23.537Z,15.10
2018-06-20T23:04:51.053Z,15.00
2018-06-20T23:07:19.376Z,14.90
2018-06-20T23:09:46.956Z,15.00
2018-06-20T23:14:43.455Z,15.00
2018-06-20T23:17:10.934Z,15.00
2018-06-20T23:19:38.575Z,15.00
2018-06-20T23:22:07.120Z,14.90
2018-06-20T23:24:36.504Z,14.90
2018-06-20T23:27:04.405Z,14.80
2018-06-20T23:29:31.869Z,14.80
2018-06-20T23:31:59.495Z,14.80
2018-06-20T23:36:54.605Z,14.70
2018-06-20T23:39:22.122Z,14.80
2018-06-20T23:41:49.520Z,14.70
2018-06-20T23:44:16.938Z,14.60
2018-06-20T23:46:44.366Z,14.50
2018-06-20T23:49:11.830Z,14.50
2018-06-20T23:51:39.347Z,14.50
2018-06-20T23:54:06.784Z,14.50
2018-06-20T23:56:34.221Z,14.50
2018-06-20T23:59:01.668Z,14.50
